»·PEaware :: SWA1606 KSJC-KSAN

SWA1606 :: KSJC-KSAN

FLIGHT INFORMATION

Flight Status: Arrived
Operator:
Southwest Airlines
More flights by this operator :: More flights under this callsign
Pilot: Martin A. (6413)
Aircraft: BOEING 737-800
(B738)
More flights by this aircraft type
Origin: KSJC Mineta San Jose Intl
United States
Destination: KSAN San Diego Intl-Lindbergh
United States
More flights between these airports :: More routes between these airports
Route: +TECKY3 EBAYE AVE FIM J1 LAX COMIX1
File this flight plan on PilotEdge
Remarks: PBN / A1B1C1D1S1S2 DOF / 171130 REG / N806SB EET / KZAK0019 KZLA0024 OPR / SWA PER / C RMK / TCAS SIMBRIEF
Altitude:
(Current/Filed)
37,000ft
Speed:
(Current/Filed)
450kts
Departed: 29-Nov-17 06:01 PM
Arrived: 29-Nov-17 07:11 PM
Distance/Time
Traveled:
362nm/1:10
Distance/Time
To Go:
Arrived

Flight Plot

Page will automatically refresh every two minutes.

Flight plan parsing failed; only flown route is shown


Map Options




Map Legend


Flown Route
Filed Route
Departure Airport
Arrival Airport
Navaid (VOR, NDB)
Fix

Horizontal Profiles

Position Reports

Time Latitude Longitude Heading Altitude Ground
Speed
29-Nov-17 17:19 37.371197 -121.932474 0 38ft 0kts
29-Nov-17 17:20 37.371197 -121.932474 66 38ft 0kts
29-Nov-17 17:21 37.371197 -121.932474 66 38ft 0kts
29-Nov-17 17:22 37.371197 -121.932474 66 38ft 0kts
29-Nov-17 17:28 37.371197 -121.932473 66 38ft 0kts
29-Nov-17 17:29 37.371197 -121.932473 66 38ft 0kts
29-Nov-17 17:30 37.371197 -121.932473 66 38ft 0kts
29-Nov-17 17:31 37.371197 -121.932473 66 38ft 0kts
29-Nov-17 17:37 37.371197 -121.932473 66 38ft 0kts
29-Nov-17 17:38 37.371197 -121.932473 66 38ft 0kts
29-Nov-17 17:39 37.371197 -121.932473 66 38ft 0kts
29-Nov-17 17:40 37.371197 -121.932473 66 38ft 0kts
29-Nov-17 17:41 37.371197 -121.932473 66 38ft 0kts
29-Nov-17 17:42 37.371197 -121.932473 66 38ft 0kts
29-Nov-17 17:43 37.371197 -121.932473 66 38ft 0kts
29-Nov-17 17:44 37.371197 -121.932473 66 38ft 0kts
29-Nov-17 17:45 37.371197 -121.932473 66 38ft 0kts
29-Nov-17 17:46 37.371197 -121.932473 66 38ft 0kts
29-Nov-17 17:47 37.371197 -121.932473 66 38ft 0kts
29-Nov-17 17:48 37.371197 -121.932473 66 38ft 0kts
29-Nov-17 17:49 37.371197 -121.932473 66 38ft 0kts
29-Nov-17 17:50 37.371197 -121.932473 66 38ft 0kts
29-Nov-17 17:51 37.371197 -121.932473 66 38ft 0kts
29-Nov-17 17:52 37.371197 -121.932473 66 38ft 0kts
29-Nov-17 17:53 37.371197 -121.932473 66 38ft 0kts
29-Nov-17 17:54 37.371047 -121.932918 66 38ft 2kts
29-Nov-17 17:55 37.371162 -121.933403 139 38ft 0kts
29-Nov-17 17:56 37.371162 -121.933403 139 38ft 0kts
29-Nov-17 17:57 37.371162 -121.933403 139 38ft 0kts
29-Nov-17 17:58 37.370240 -121.932331 137 40ft 9kts
29-Nov-17 17:59 37.368302 -121.931190 139 44ft 8kts
29-Nov-17 18:00 37.365958 -121.928672 140 48ft 13kts
29-Nov-17 18:01 37.362835 -121.925230 138 51ft 13kts
29-Nov-17 18:02 37.360321 -121.922483 140 54ft 13kts
29-Nov-17 18:03 37.357133 -121.918998 137 59ft 15kts
29-Nov-17 18:04 37.354237 -121.915819 138 63ft 13kts
29-Nov-17 18:05 37.352449 -121.915299 227 65ft 5kts
29-Nov-17 18:06 37.364072 -121.928269 316 96ft 165kts
29-Nov-17 18:07 37.399172 -121.966042 306 2943ft 167kts
29-Nov-17 18:08 37.445383 -121.972823 54 4529ft 247kts
29-Nov-17 18:09 37.438418 -121.895295 138 5187ft 253kts
29-Nov-17 18:10 37.382766 -121.840423 142 5159ft 254kts
29-Nov-17 18:11 37.322841 -121.780800 138 6208ft 294kts
29-Nov-17 18:12 37.263975 -121.714781 137 10082ft 288kts
29-Nov-17 18:13 37.199857 -121.642324 137 12641ft 326kts
29-Nov-17 18:14 37.131643 -121.565190 137 15628ft 340kts
29-Nov-17 18:15 37.060666 -121.485067 137 18506ft 349kts
29-Nov-17 18:16 36.986471 -121.406307 138 21362ft 352kts
29-Nov-17 18:17 36.911896 -121.327350 139 23742ft 360kts
29-Nov-17 18:18 36.835064 -121.245926 138 25789ft 372kts
29-Nov-17 18:19 36.755740 -121.161795 136 27863ft 376kts
29-Nov-17 18:20 36.675796 -121.076919 136 29607ft 381kts
29-Nov-17 18:21 36.594675 -120.991312 138 31190ft 385kts
29-Nov-17 18:22 36.511761 -120.908014 137 32690ft 383kts
29-Nov-17 18:23 36.429379 -120.825266 137 33998ft 382kts
29-Nov-17 18:24 36.347221 -120.742710 137 35192ft 379kts
29-Nov-17 18:25 36.265670 -120.660668 137 36229ft 378kts
29-Nov-17 18:26 36.184330 -120.578754 137 37069ft 377kts
29-Nov-17 18:27 36.101802 -120.495634 137 37127ft 391kts
29-Nov-17 18:28 36.016271 -120.409391 137 37133ft 405kts
29-Nov-17 18:29 35.927791 -120.320187 138 37152ft 420kts
29-Nov-17 18:30 35.840892 -120.225428 131 37137ft 433kts
29-Nov-17 18:31 35.756384 -120.117722 131 37132ft 441kts
29-Nov-17 18:32 35.671151 -120.009369 131 37112ft 441kts
29-Nov-17 18:33 35.574272 -119.916398 142 37133ft 445kts
29-Nov-17 18:34 35.472690 -119.830403 142 37145ft 445kts
29-Nov-17 18:35 35.382140 -119.753649 142 37167ft 445kts
29-Nov-17 18:39 34.969878 -119.403566 143 37131ft 423kts
29-Nov-17 18:40 34.874783 -119.322689 148 37129ft 428kts
29-Nov-17 18:41 34.775595 -119.238334 148 37124ft 443kts
29-Nov-17 18:42 34.677069 -119.154412 148 37081ft 444kts
29-Nov-17 18:43 34.576088 -119.068396 148 37073ft 444kts
29-Nov-17 18:44 34.475441 -118.982556 149 37067ft 443kts
29-Nov-17 18:45 34.374912 -118.896809 151 37076ft 442kts
29-Nov-17 18:46 34.280377 -118.800251 146 37073ft 448kts
29-Nov-17 18:47 34.187028 -118.701383 146 37079ft 449kts
29-Nov-17 18:48 34.093378 -118.602064 146 37081ft 448kts
29-Nov-17 18:49 34.000147 -118.503137 146 37074ft 444kts
29-Nov-17 18:50 33.915224 -118.409085 141 36054ft 403kts
29-Nov-17 18:51 33.842382 -118.314529 142 34105ft 387kts
29-Nov-17 18:52 33.769956 -118.220751 141 32214ft 386kts
29-Nov-17 18:53 33.697472 -118.125720 141 30290ft 385kts
29-Nov-17 18:54 33.625521 -118.031459 140 28382ft 385kts
29-Nov-17 18:55 33.553243 -117.936767 140 26468ft 385kts
29-Nov-17 18:56 33.477238 -117.848153 142 24556ft 377kts
29-Nov-17 18:57 33.404345 -117.761473 140 22716ft 365kts
29-Nov-17 18:58 33.334566 -117.676572 139 20934ft 353kts
29-Nov-17 18:59 33.278038 -117.607779 139 19487ft 345kts
29-Nov-17 19:00 33.191224 -117.529017 148 16916ft 336kts
29-Nov-17 19:01 33.127991 -117.476013 147 14829ft 332kts
29-Nov-17 19:02 33.055971 -117.415885 147 13245ft 312kts
29-Nov-17 19:03 32.975643 -117.348518 148 11539ft 276kts
29-Nov-17 19:04 32.926106 -117.306159 145 10520ft 261kts
29-Nov-17 19:05 32.870170 -117.254356 145 8705ft 255kts
29-Nov-17 19:06 32.825967 -117.195434 103 7047ft 240kts
29-Nov-17 19:07 32.815716 -117.118121 101 6974ft 239kts
29-Nov-17 19:08 32.805174 -117.041043 101 6118ft 236kts
29-Nov-17 19:09 32.785924 -116.968620 142 5029ft 227kts
29-Nov-17 19:10 32.733200 -116.965388 191 4251ft 191kts
29-Nov-17 19:11 32.698829 -117.005859 253 3412ft 178kts
29-Nov-17 19:12 32.701105 -117.063278 288 2008ft 169kts
29-Nov-17 19:13 32.715015 -117.113690 285 1276ft 154kts
29-Nov-17 19:14 32.726615 -117.161026 285 364ft 142kts
29-Nov-17 19:15 32.736042 -117.200402 286 17ft 62kts
29-Nov-17 19:16 32.736047 -117.203882 132 17ft 4kts
29-Nov-17 19:17 32.735128 -117.200387 107 17ft 14kts
29-Nov-17 19:18 32.733720 -117.196979 189 17ft 7kts
29-Nov-17 19:19 32.733147 -117.196757 141 18ft 0kts
29-Nov-17 19:20 32.733138 -117.196748 141 18ft 0kts
29-Nov-17 19:21 32.733138 -117.196748 141 18ft 0kts
29-Nov-17 19:22 32.733138 -117.196748 141 18ft 0kts

Navigation Log

Ident Type
Flight plan parsing failed, navigation log unavailable